Main page
METAR-TAF:

METAR-TAF

Airports :

Ingolstadt Manching Airport

Ingolstadt, Germany

latitude: 48-43N, longitude: 011-32E, elevation: 367 m

Current weather observation

The report was made 1 hour and 1 minutes ago, at 16:20 UTC
Wind 10 kt from the East with gusts up to 20 kt
Temperature 23°C
Humidity 19%
Pressure 1005 hPa
Visibility: 9000 m

METAR: ETSI 221620Z AUTO 10010G20KT 9000 // ////// 23/M02 Q1005 ///

Time: 19:21 (17:21 UTC)


TAF: missing

Weather observations and forecasts of more than 4000 airports (METAR and TAF reports).

The available stations are represented by yellow and red dots on the map.

Hover mouse over dot to see the name of the station.

Then click to see weather observations and forecasts.

To change the map : click on the green buttons with a black cross to zoom in, on the green button with a dash to zoom out, or on the green arrows for adjacent maps.


METAR-TAF: